sensor_id;sensor_type;location;lat;lon;timestamp;P1;durP1;ratioP1;P2;durP2;ratioP2
42666;SDS011;28280;49.646;14.130;2022-09-03T00:02:08;1.88;;;1.30;;
42666;SDS011;28280;49.646;14.130;2022-09-03T00:08:03;1.30;;;1.20;;
42666;SDS011;28280;49.646;14.130;2022-09-03T00:13:59;1.50;;;0.98;;
42666;SDS011;28280;49.646;14.130;2022-09-03T00:19:35;2.40;;;1.00;;
42666;SDS011;28280;49.646;14.130;2022-09-03T00:25:57;1.67;;;1.15;;
42666;SDS011;28280;49.646;14.130;2022-09-03T00:36:57;1.88;;;1.20;;
42666;SDS011;28280;49.646;14.130;2022-09-03T00:42:38;1.70;;;1.02;;
42666;SDS011;28280;49.646;14.130;2022-09-03T00:48:22;1.80;;;1.23;;
42666;SDS011;28280;49.646;14.130;2022-09-03T00:54:06;2.20;;;1.15;;
42666;SDS011;28280;49.646;14.130;2022-09-03T00:59:45;6.18;;;1.58;;
42666;SDS011;28280;49.646;14.130;2022-09-03T01:05:22;2.28;;;1.23;;
42666;SDS011;28280;49.646;14.130;2022-09-03T01:40:17;1.98;;;1.20;;
42666;SDS011;28280;49.646;14.130;2022-09-03T01:51:39;1.65;;;1.30;;
42666;SDS011;28280;49.646;14.130;2022-09-03T02:03:06;2.47;;;1.30;;
42666;SDS011;28280;49.646;14.130;2022-09-03T02:08:39;2.22;;;1.25;;
42666;SDS011;28280;49.646;14.130;2022-09-03T02:14:12;2.00;;;1.13;;
42666;SDS011;28280;49.646;14.130;2022-09-03T02:19:44;1.80;;;1.20;;
42666;SDS011;28280;49.646;14.130;2022-09-03T02:25:15;1.80;;;1.23;;
42666;SDS011;28280;49.646;14.130;2022-09-03T02:30:47;1.67;;;1.10;;
42666;SDS011;28280;49.646;14.130;2022-09-03T02:36:20;2.25;;;1.20;;
42666;SDS011;28280;49.646;14.130;2022-09-03T02:41:57;3.45;;;1.40;;
42666;SDS011;28280;49.646;14.130;2022-09-03T02:47:29;2.38;;;1.50;;
42666;SDS011;28280;49.646;14.130;2022-09-03T02:53:02;2.08;;;1.00;;
42666;SDS011;28280;49.646;14.130;2022-09-03T02:58:33;1.92;;;1.40;;
42666;SDS011;28280;49.646;14.130;2022-09-03T03:04:05;2.00;;;1.20;;
42666;SDS011;28280;49.646;14.130;2022-09-03T03:09:36;2.25;;;1.23;;
42666;SDS011;28280;49.646;14.130;2022-09-03T03:15:07;2.22;;;1.77;;
42666;SDS011;28280;49.646;14.130;2022-09-03T03:20:38;2.17;;;1.35;;
42666;SDS011;28280;49.646;14.130;2022-09-03T03:26:11;2.30;;;1.33;;
42666;SDS011;28280;49.646;14.130;2022-09-03T03:31:45;2.13;;;1.27;;
42666;SDS011;28280;49.646;14.130;2022-09-03T03:37:16;2.17;;;1.40;;
42666;SDS011;28280;49.646;14.130;2022-09-03T03:42:47;2.53;;;1.27;;
42666;SDS011;28280;49.646;14.130;2022-09-03T03:48:19;3.43;;;1.47;;
42666;SDS011;28280;49.646;14.130;2022-09-03T03:53:54;2.53;;;1.40;;
42666;SDS011;28280;49.646;14.130;2022-09-03T03:59:30;2.33;;;1.20;;
42666;SDS011;28280;49.646;14.130;2022-09-03T04:05:01;2.00;;;1.30;;
42666;SDS011;28280;49.646;14.130;2022-09-03T04:10:32;2.53;;;1.27;;
42666;SDS011;28280;49.646;14.130;2022-09-03T04:16:04;1.92;;;1.27;;
42666;SDS011;28280;49.646;14.130;2022-09-03T04:21:40;2.03;;;1.27;;
42666;SDS011;28280;49.646;14.130;2022-09-03T04:27:11;1.75;;;1.20;;
42666;SDS011;28280;49.646;14.130;2022-09-03T04:32:42;2.80;;;1.48;;
42666;SDS011;28280;49.646;14.130;2022-09-03T04:38:27;2.63;;;1.42;;
42666;SDS011;28280;49.646;14.130;2022-09-03T04:49:30;2.10;;;1.40;;
42666;SDS011;28280;49.646;14.130;2022-09-03T04:55:00;1.65;;;1.30;;
42666;SDS011;28280;49.646;14.130;2022-09-03T05:00:32;1.80;;;1.17;;
42666;SDS011;28280;49.646;14.130;2022-09-03T05:06:04;1.40;;;1.20;;
42666;SDS011;28280;49.646;14.130;2022-09-03T05:11:37;2.08;;;1.50;;
42666;SDS011;28280;49.646;14.130;2022-09-03T05:17:08;1.65;;;1.20;;
42666;SDS011;28280;49.646;14.130;2022-09-03T05:22:39;1.67;;;1.23;;
42666;SDS011;28280;49.646;14.130;2022-09-03T05:28:10;1.95;;;1.23;;
42666;SDS011;28280;49.646;14.130;2022-09-03T05:33:42;1.52;;;1.23;;
42666;SDS011;28280;49.646;14.130;2022-09-03T05:39:15;2.50;;;1.50;;
42666;SDS011;28280;49.646;14.130;2022-09-03T05:44:46;1.90;;;1.30;;
42666;SDS011;28280;49.646;14.130;2022-09-03T05:50:19;1.80;;;1.20;;
42666;SDS011;28280;49.646;14.130;2022-09-03T05:55:57;1.55;;;1.00;;
42666;SDS011;28280;49.646;14.130;2022-09-03T06:01:35;2.15;;;1.38;;
42666;SDS011;28280;49.646;14.130;2022-09-03T06:07:23;3.15;;;1.30;;
42666;SDS011;28280;49.646;14.130;2022-09-03T06:12:55;1.87;;;1.17;;
42666;SDS011;28280;49.646;14.130;2022-09-03T06:18:28;2.83;;;1.45;;
42666;SDS011;28280;49.646;14.130;2022-09-03T06:24:00;1.80;;;1.45;;
42666;SDS011;28280;49.646;14.130;2022-09-03T06:29:32;1.98;;;1.30;;
42666;SDS011;28280;49.646;14.130;2022-09-03T06:35:05;2.97;;;1.60;;
42666;SDS011;28280;49.646;14.130;2022-09-03T06:40:37;1.98;;;1.33;;
42666;SDS011;28280;49.646;14.130;2022-09-03T06:46:09;3.78;;;2.03;;
42666;SDS011;28280;49.646;14.130;2022-09-03T06:51:42;2.55;;;1.63;;
42666;SDS011;28280;49.646;14.130;2022-09-03T06:57:13;3.72;;;1.60;;
42666;SDS011;28280;49.646;14.130;2022-09-03T07:02:44;3.80;;;1.83;;
42666;SDS011;28280;49.646;14.130;2022-09-03T07:08:18;2.67;;;1.38;;
42666;SDS011;28280;49.646;14.130;2022-09-03T07:13:49;2.42;;;1.48;;
42666;SDS011;28280;49.646;14.130;2022-09-03T07:19:21;2.53;;;1.50;;
42666;SDS011;28280;49.646;14.130;2022-09-03T07:24:53;2.60;;;1.45;;
42666;SDS011;28280;49.646;14.130;2022-09-03T07:30:24;3.20;;;1.40;;
42666;SDS011;28280;49.646;14.130;2022-09-03T07:36:01;1.95;;;1.30;;
42666;SDS011;28280;49.646;14.130;2022-09-03T07:41:44;1.98;;;1.35;;
42666;SDS011;28280;49.646;14.130;2022-09-03T07:47:15;2.22;;;1.30;;
42666;SDS011;28280;49.646;14.130;2022-09-03T07:52:56;2.53;;;1.30;;
42666;SDS011;28280;49.646;14.130;2022-09-03T07:58:29;1.90;;;1.20;;
42666;SDS011;28280;49.646;14.130;2022-09-03T08:04:01;1.90;;;1.25;;
42666;SDS011;28280;49.646;14.130;2022-09-03T08:09:34;2.17;;;1.20;;
42666;SDS011;28280;49.646;14.130;2022-09-03T08:15:05;2.20;;;1.40;;
42666;SDS011;28280;49.646;14.130;2022-09-03T08:20:38;6.05;;;1.67;;
42666;SDS011;28280;49.646;14.130;2022-09-03T08:26:09;3.50;;;1.67;;
42666;SDS011;28280;49.646;14.130;2022-09-03T08:31:43;2.28;;;1.52;;
42666;SDS011;28280;49.646;14.130;2022-09-03T08:37:15;2.03;;;1.30;;
42666;SDS011;28280;49.646;14.130;2022-09-03T08:42:57;2.88;;;1.33;;
42666;SDS011;28280;49.646;14.130;2022-09-03T08:48:42;2.13;;;1.40;;
42666;SDS011;28280;49.646;14.130;2022-09-03T08:54:15;5.78;;;1.70;;
42666;SDS011;28280;49.646;14.130;2022-09-03T08:59:50;4.53;;;1.45;;
42666;SDS011;28280;49.646;14.130;2022-09-03T09:05:29;4.55;;;1.95;;
42666;SDS011;28280;49.646;14.130;2022-09-03T09:11:15;5.30;;;1.60;;
42666;SDS011;28280;49.646;14.130;2022-09-03T09:17:01;6.65;;;1.75;;
42666;SDS011;28280;49.646;14.130;2022-09-03T09:22:50;4.38;;;1.58;;
42666;SDS011;28280;49.646;14.130;2022-09-03T09:28:30;5.25;;;1.70;;
42666;SDS011;28280;49.646;14.130;2022-09-03T09:34:05;6.18;;;2.40;;
42666;SDS011;28280;49.646;14.130;2022-09-03T09:39:38;2.38;;;1.60;;
42666;SDS011;28280;49.646;14.130;2022-09-03T09:45:10;5.55;;;2.17;;
42666;SDS011;28280;49.646;14.130;2022-09-03T09:50:42;3.53;;;1.60;;
42666;SDS011;28280;49.646;14.130;2022-09-03T09:56:20;2.70;;;1.33;;
42666;SDS011;28280;49.646;14.130;2022-09-03T10:02:03;3.53;;;1.90;;
42666;SDS011;28280;49.646;14.130;2022-09-03T10:13:40;3.90;;;1.75;;
42666;SDS011;28280;49.646;14.130;2022-09-03T10:19:17;4.45;;;1.85;;
42666;SDS011;28280;49.646;14.130;2022-09-03T10:24:57;2.20;;;1.58;;
42666;SDS011;28280;49.646;14.130;2022-09-03T10:30:29;3.55;;;1.67;;
42666;SDS011;28280;49.646;14.130;2022-09-03T10:47:40;2.53;;;1.60;;
42666;SDS011;28280;49.646;14.130;2022-09-03T11:05:19;4.97;;;1.67;;
42666;SDS011;28280;49.646;14.130;2022-09-03T11:11:15;3.47;;;1.98;;
42666;SDS011;28280;49.646;14.130;2022-09-03T11:16:53;5.00;;;1.80;;
42666;SDS011;28280;49.646;14.130;2022-09-03T11:22:33;2.40;;;1.70;;
42666;SDS011;28280;49.646;14.130;2022-09-03T11:34:14;4.20;;;1.73;;
42666;SDS011;28280;49.646;14.130;2022-09-03T11:45:45;3.42;;;1.77;;
42666;SDS011;28280;49.646;14.130;2022-09-03T11:51:30;4.57;;;1.75;;
42666;SDS011;28280;49.646;14.130;2022-09-03T11:57:29;5.75;;;2.70;;
42666;SDS011;28280;49.646;14.130;2022-09-03T12:03:02;3.33;;;2.00;;
42666;SDS011;28280;49.646;14.130;2022-09-03T12:14:46;3.47;;;2.00;;
42666;SDS011;28280;49.646;14.130;2022-09-03T12:20:59;4.38;;;1.80;;
42666;SDS011;28280;49.646;14.130;2022-09-03T12:26:40;2.35;;;1.60;;
42666;SDS011;28280;49.646;14.130;2022-09-03T12:32:15;4.18;;;1.90;;
42666;SDS011;28280;49.646;14.130;2022-09-03T12:37:54;4.20;;;1.77;;
42666;SDS011;28280;49.646;14.130;2022-09-03T12:43:40;6.70;;;2.20;;
42666;SDS011;28280;49.646;14.130;2022-09-03T12:49:21;5.75;;;1.70;;
42666;SDS011;28280;49.646;14.130;2022-09-03T12:55:02;7.78;;;2.10;;
42666;SDS011;28280;49.646;14.130;2022-09-03T13:31:21;41.40;;;7.93;;
42666;SDS011;28280;49.646;14.130;2022-09-03T13:48:56;27.67;;;7.82;;
42666;SDS011;28280;49.646;14.130;2022-09-03T14:07:02;18.88;;;4.55;;
42666;SDS011;28280;49.646;14.130;2022-09-03T14:12:49;15.95;;;4.50;;
42666;SDS011;28280;49.646;14.130;2022-09-03T14:18:59;21.55;;;4.70;;
42666;SDS011;28280;49.646;14.130;2022-09-03T14:35:58;16.02;;;4.00;;
42666;SDS011;28280;49.646;14.130;2022-09-03T15:39:09;7.72;;;2.45;;
42666;SDS011;28280;49.646;14.130;2022-09-03T15:44:46;8.68;;;2.17;;
42666;SDS011;28280;49.646;14.130;2022-09-03T15:56:27;6.55;;;2.72;;
42666;SDS011;28280;49.646;14.130;2022-09-03T16:02:19;10.35;;;2.50;;
42666;SDS011;28280;49.646;14.130;2022-09-03T16:14:11;7.07;;;2.30;;
42666;SDS011;28280;49.646;14.130;2022-09-03T16:20:02;8.00;;;2.10;;
42666;SDS011;28280;49.646;14.130;2022-09-03T16:25:43;6.22;;;2.70;;
42666;SDS011;28280;49.646;14.130;2022-09-03T16:55:11;5.13;;;2.38;;
42666;SDS011;28280;49.646;14.130;2022-09-03T17:12:22;4.75;;;1.75;;
42666;SDS011;28280;49.646;14.130;2022-09-03T17:18:15;3.17;;;1.98;;
42666;SDS011;28280;49.646;14.130;2022-09-03T17:41:39;4.60;;;2.30;;
42666;SDS011;28280;49.646;14.130;2022-09-03T17:53:27;5.38;;;2.10;;
42666;SDS011;28280;49.646;14.130;2022-09-03T17:59:14;3.15;;;2.05;;
42666;SDS011;28280;49.646;14.130;2022-09-03T18:11:18;4.78;;;2.03;;
42666;SDS011;28280;49.646;14.130;2022-09-03T18:16:51;4.70;;;2.00;;
42666;SDS011;28280;49.646;14.130;2022-09-03T18:22:28;3.80;;;2.28;;
42666;SDS011;28280;49.646;14.130;2022-09-03T18:28:24;3.80;;;2.33;;
42666;SDS011;28280;49.646;14.130;2022-09-03T18:34:21;4.55;;;2.55;;
42666;SDS011;28280;49.646;14.130;2022-09-03T18:40:20;3.72;;;2.53;;
42666;SDS011;28280;49.646;14.130;2022-09-03T18:46:27;6.57;;;2.30;;
42666;SDS011;28280;49.646;14.130;2022-09-03T18:53:00;5.85;;;2.30;;
42666;SDS011;28280;49.646;14.130;2022-09-03T19:05:16;3.85;;;2.13;;
42666;SDS011;28280;49.646;14.130;2022-09-03T19:22:58;2.65;;;2.13;;
42666;SDS011;28280;49.646;14.130;2022-09-03T19:41:07;2.90;;;2.17;;
42666;SDS011;28280;49.646;14.130;2022-09-03T19:47:00;5.30;;;2.72;;
42666;SDS011;28280;49.646;14.130;2022-09-03T19:52:56;3.85;;;2.17;;
42666;SDS011;28280;49.646;14.130;2022-09-03T19:58:57;3.65;;;2.35;;
42666;SDS011;28280;49.646;14.130;2022-09-03T20:10:45;3.78;;;2.20;;
42666;SDS011;28280;49.646;14.130;2022-09-03T20:16:20;3.13;;;2.60;;
42666;SDS011;28280;49.646;14.130;2022-09-03T20:21:58;3.50;;;2.10;;
42666;SDS011;28280;49.646;14.130;2022-09-03T20:50:23;3.30;;;2.53;;
42666;SDS011;28280;49.646;14.130;2022-09-03T21:19:10;3.08;;;2.40;;
42666;SDS011;28280;49.646;14.130;2022-09-03T21:24:54;3.17;;;2.35;;
42666;SDS011;28280;49.646;14.130;2022-09-03T21:30:28;3.42;;;2.40;;
42666;SDS011;28280;49.646;14.130;2022-09-03T21:36:14;4.80;;;2.30;;
42666;SDS011;28280;49.646;14.130;2022-09-03T21:42:08;4.40;;;2.15;;
42666;SDS011;28280;49.646;14.130;2022-09-03T21:47:52;4.15;;;2.80;;
42666;SDS011;28280;49.646;14.130;2022-09-03T21:53:37;3.58;;;2.35;;
42666;SDS011;28280;49.646;14.130;2022-09-03T22:05:34;2.72;;;2.25;;
42666;SDS011;28280;49.646;14.130;2022-09-03T22:22:53;2.72;;;2.08;;
42666;SDS011;28280;49.646;14.130;2022-09-03T22:39:48;2.53;;;1.83;;
42666;SDS011;28280;49.646;14.130;2022-09-03T22:45:30;3.15;;;2.35;;
42666;SDS011;28280;49.646;14.130;2022-09-03T22:51:15;4.53;;;2.40;;
42666;SDS011;28280;49.646;14.130;2022-09-03T22:56:50;2.67;;;2.03;;
42666;SDS011;28280;49.646;14.130;2022-09-03T23:02:24;3.45;;;2.28;;
42666;SDS011;28280;49.646;14.130;2022-09-03T23:13:59;2.78;;;2.10;;
42666;SDS011;28280;49.646;14.130;2022-09-03T23:25:20;4.10;;;2.38;;
42666;SDS011;28280;49.646;14.130;2022-09-03T23:30:53;3.97;;;2.20;;
42666;SDS011;28280;49.646;14.130;2022-09-03T23:36:57;3.50;;;2.30;;
42666;SDS011;28280;49.646;14.130;2022-09-03T23:42:57;4.82;;;2.22;;
42666;SDS011;28280;49.646;14.130;2022-09-03T23:48:48;2.78;;;2.05;;
42666;SDS011;28280;49.646;14.130;2022-09-03T23:54:45;4.93;;;2.83;;
